Time;durP1;ratioP1;P1;durP2;ratioP2;P2;SDS_P1;SDS_P2;PMS_P1;PMS_P2;Temp;Humidity;BMP_temperature;BMP_pressure;BME280_temperature;BME280_humidity;BME280_pressure;Samples;Min_cycle;Max_cycle;Signal;HPM_P1;HPM_P2
2022/05/01 00:01:39;;;;;;;;;;;;;;;22.31;37.03;102285.03;7280542;19;153006;-59
2022/05/01 00:04:06;;;;;;;;;;;;;;;22.31;37.17;102281.38;7284443;19;154064;-58
2022/05/01 00:06:33;;;;;;;;;;;;;;;22.29;36.74;102283.66;7277733;19;154062;-58
2022/05/01 00:09:00;;;;;;;;;;;;;;;22.27;36.98;102281.09;7274083;19;153560;-58
2022/05/01 00:11:28;;;;;;;;;;;;;;;22.24;37.32;102286.47;7277800;19;151781;-58
2022/05/01 00:13:55;;;;;;;;;;;;;;;22.21;37.04;102282.28;7279054;19;152883;-58
2022/05/01 00:16:21;;;;;;;;;;;;;;;22.18;37.45;102280.00;7277936;19;154170;-58
2022/05/01 00:18:49;;;;;;;;;;;;;;;22.16;36.96;102277.50;7279732;19;151885;-59
2022/05/01 00:21:16;;;;;;;;;;;;;;;22.14;37.22;102285.38;7279231;19;153731;-58
2022/05/01 00:23:42;;;;;;;;;;;;;;;22.13;37.09;102282.84;7276024;19;154134;-58
2022/05/01 00:26:09;;;;;;;;;;;;;;;22.12;37.28;102275.56;7285163;19;152273;-58
2022/05/01 00:28:37;;;;;;;;;;;;;;;22.15;37.40;102269.34;7276290;19;154384;-58
2022/05/01 00:31:05;;;;;;;;;;;;;;;22.13;37.71;102274.41;7280042;19;151790;-57
2022/05/01 00:38:47;;;;;;;;;;;;;;;22.15;37.72;102252.44;7275981;19;152519;-62
2022/05/01 00:41:15;;;;;;;;;;;;;;;22.18;37.94;102257.50;7279876;19;153470;-59
2022/05/01 00:43:52;;;;;;;;;;;;;;;22.18;37.93;102257.50;7278737;19;154213;-57
2022/05/01 00:46:21;;;;;;;;;;;;;;;22.14;37.62;102254.41;7282422;19;151789;-58
2022/05/01 00:48:48;;;;;;;;;;;;;;;22.13;37.70;102251.88;7284055;19;154491;-58
2022/05/01 00:51:15;;;;;;;;;;;;;;;22.08;38.03;102252.75;7282603;19;151525;-57
2022/05/01 00:53:44;;;;;;;;;;;;;;;22.06;38.10;102251.34;7280278;19;153360;-58
2022/05/01 00:56:11;;;;;;;;;;;;;;;22.05;37.69;102252.47;7277359;19;154904;-57
2022/05/01 00:58:39;;;;;;;;;;;;;;;22.02;37.85;102253.06;7282365;19;151870;-57
2022/05/01 01:01:06;;;;;;;;;;;;;;;22.00;38.09;102247.72;7280405;19;153783;-57
2022/05/01 01:03:33;;;;;;;;;;;;;;;21.99;38.15;102253.63;7280234;19;152451;-57
2022/05/01 01:06:00;;;;;;;;;;;;;;;21.98;38.44;102249.16;7281246;19;152272;-57
2022/05/01 01:08:26;;;;;;;;;;;;;;;21.95;38.32;102242.09;7278153;19;153361;-57
2022/05/01 01:10:53;;;;;;;;;;;;;;;21.94;38.60;102248.84;7286611;19;151745;-57
2022/05/01 01:13:30;;;;;;;;;;;;;;;21.92;38.65;102250.25;7278428;19;152664;-57
2022/05/01 01:15:57;;;;;;;;;;;;;;;21.89;38.58;102246.06;7276709;19;153590;-57
2022/05/01 01:18:24;;;;;;;;;;;;;;;21.89;38.48;102246.06;7278251;19;151875;-58
2022/05/01 01:20:52;;;;;;;;;;;;;;;21.87;38.56;102237.03;7280759;19;153487;-57
2022/05/01 01:23:19;;;;;;;;;;;;;;;21.88;38.89;102243.50;7277091;19;154149;-56
2022/05/01 01:25:47;;;;;;;;;;;;;;;21.85;38.91;102235.66;7279071;19;151863;-57
2022/05/01 01:28:14;;;;;;;;;;;;;;;21.83;39.05;102240.72;7279456;19;152806;-58
2022/05/01 01:33:21;;;;;;;;;;;;;;;21.80;39.09;102230.88;7278902;19;153237;-58
2022/05/01 01:35:49;;;;;;;;;;;;;;;21.80;39.21;102228.06;7278743;19;153217;-57
2022/05/01 01:38:16;;;;;;;;;;;;;;;21.80;39.42;102235.66;7278322;19;151744;-57
2022/05/01 01:40:43;;;;;;;;;;;;;;;21.79;39.50;102228.34;7281508;19;152776;-57
2022/05/01 01:43:11;;;;;;;;;;;;;;;21.78;39.36;102229.47;7277272;19;153379;-57
2022/05/01 01:45:37;;;;;;;;;;;;;;;21.76;39.15;102228.94;7281175;19;152165;-57
2022/05/01 01:48:13;;;;;;;;;;;;;;;21.74;39.22;102226.38;7280249;19;151824;-57
2022/05/01 01:50:40;;;;;;;;;;;;;;;21.72;39.55;102221.03;7276435;19;153391;-57
2022/05/01 01:53:07;;;;;;;;;;;;;;;21.72;39.43;102223.00;7287667;19;151940;-57
2022/05/01 01:55:38;;;;;;;;;;;;;;;21.78;39.74;102212.59;7273633;19;153499;-57
2022/05/01 01:58:05;;;;;;;;;;;;;;;21.76;39.72;102215.66;7280349;19;152449;-57
2022/05/01 02:00:33;;;;;;;;;;;;;;;21.73;39.50;102216.25;7276977;19;152959;-57
2022/05/01 02:03:00;;;;;;;;;;;;;;;21.74;39.70;102221.59;7276370;19;153961;-57
2022/05/01 02:05:27;;;;;;;;;;;;;;;21.73;39.81;102217.09;7276721;19;151880;-57
2022/05/01 02:07:54;;;;;;;;;;;;;;;21.66;39.87;102216.56;7280580;19;153755;-58
2022/05/01 02:10:20;;;;;;;;;;;;;;;21.67;39.50;102208.94;7274432;19;153939;-57
2022/05/01 02:12:47;;;;;;;;;;;;;;;21.64;39.80;102212.34;7277296;19;151821;-57
2022/05/01 02:15:15;;;;;;;;;;;;;;;21.62;39.89;102215.44;7280796;19;152628;-58
2022/05/01 02:17:41;;;;;;;;;;;;;;;21.57;39.83;102209.00;7278453;19;151519;-58
2022/05/01 02:20:08;;;;;;;;;;;;;;;21.59;39.93;102213.19;7278857;19;153120;-58
2022/05/01 02:22:35;;;;;;;;;;;;;;;21.62;39.75;102207.00;7275296;19;153823;-57
2022/05/01 02:25:02;;;;;;;;;;;;;;;21.62;40.37;102211.81;7279510;19;151883;-58
2022/05/01 02:27:29;;;;;;;;;;;;;;;21.60;40.45;102208.41;7278466;19;153579;-57
2022/05/01 02:29:56;;;;;;;;;;;;;;;21.57;39.90;102209.00;7276378;19;153336;-56
2022/05/01 02:32:22;;;;;;;;;;;;;;;21.60;40.36;102206.44;7278838;19;151839;-57
2022/05/01 02:34:49;;;;;;;;;;;;;;;21.58;40.37;102202.22;7278584;19;153332;-57
2022/05/01 02:37:16;;;;;;;;;;;;;;;21.52;40.57;102197.75;7284411;19;153804;-57
2022/05/01 02:39:42;;;;;;;;;;;;;;;21.52;40.78;102192.97;7276464;19;151788;-57
2022/05/01 02:42:09;;;;;;;;;;;;;;;21.55;40.46;102195.22;7275696;19;153387;-58
2022/05/01 02:44:37;;;;;;;;;;;;;;;21.51;40.41;102182.00;7278133;19;151671;-58
2022/05/01 02:47:05;;;;;;;;;;;;;;;21.48;40.79;102189.06;7278306;19;153409;-57
2022/05/01 02:49:32;;;;;;;;;;;;;;;21.49;40.86;102184.25;7275694;19;153542;-57
2022/05/01 02:51:58;;;;;;;;;;;;;;;21.47;40.93;102181.75;7276524;19;151758;-57
2022/05/01 02:54:27;;;;;;;;;;;;;;;21.46;40.78;102179.19;7277570;19;153176;-57
2022/05/01 02:56:54;;;;;;;;;;;;;;;21.44;40.89;102176.66;7274962;19;154825;-57
2022/05/01 02:59:21;;;;;;;;;;;;;;;21.43;40.99;102177.81;7286005;19;152264;-57
2022/05/01 03:01:47;;;;;;;;;;;;;;;21.41;40.95;102174.44;7277113;19;154110;-58
2022/05/01 03:04:14;;;;;;;;;;;;;;;21.39;41.03;102168.28;7275019;19;152152;-57
2022/05/01 03:06:41;;;;;;;;;;;;;;;21.37;41.08;102167.69;7278098;19;153488;-57
2022/05/01 03:09:08;;;;;;;;;;;;;;;21.36;41.10;102165.16;7281454;19;153826;-57
2022/05/01 03:11:36;;;;;;;;;;;;;;;21.36;41.22;102171.63;7283155;19;151647;-57
2022/05/01 03:14:03;;;;;;;;;;;;;;;21.36;41.10;102168.81;7282081;19;154199;-57
2022/05/01 03:16:30;;;;;;;;;;;;;;;21.36;41.29;102168.81;7280941;19;153702;-57
2022/05/01 03:24:09;;;;;;;;;;;;;;;21.30;41.24;102169.97;7282683;19;151631;-58
2022/05/01 03:26:36;;;;;;;;;;;;;;;21.29;41.39;102163.50;7281984;19;152148;-57
2022/05/01 03:29:03;;;;;;;;;;;;;;;21.32;41.52;102167.69;7280587;19;153968;-57
2022/05/01 03:31:29;;;;;;;;;;;;;;;21.29;41.62;102160.69;7282675;19;151599;-57
2022/05/01 03:33:56;;;;;;;;;;;;;;;21.33;41.55;102160.13;7284460;19;152612;-57
2022/05/01 03:36:23;;;;;;;;;;;;;;;21.30;41.76;102153.91;7282295;19;153319;-57
2022/05/01 03:38:50;;;;;;;;;;;;;;;21.30;41.72;102158.72;7283756;19;151833;-57
2022/05/01 03:41:17;;;;;;;;;;;;;;;21.27;41.89;102157.31;7288909;19;152779;-58
2022/05/01 03:43:43;;;;;;;;;;;;;;;21.25;41.78;102158.75;7282222;19;151784;-57
2022/05/01 03:46:10;;;;;;;;;;;;;;;21.23;41.77;102153.38;7283848;19;152158;-58
2022/05/01 03:48:37;;;;;;;;;;;;;;;21.23;41.84;102149.72;7281645;19;154529;-58
2022/05/01 03:51:04;;;;;;;;;;;;;;;21.26;41.61;102149.16;7279091;19;151731;-57
2022/05/01 03:53:30;;;;;;;;;;;;;;;21.26;41.46;102151.97;7281044;19;153288;-57
2022/05/01 03:55:57;;;;;;;;;;;;;;;21.26;42.02;102151.97;7282402;19;154957;-57
2022/05/01 03:58:24;;;;;;;;;;;;;;;21.24;42.31;102145.81;7279430;19;152124;-57
2022/05/01 04:00:51;;;;;;;;;;;;;;;21.21;42.07;102150.00;7283308;19;153455;-57
2022/05/01 04:03:17;;;;;;;;;;;;;;;21.19;41.84;102140.19;7288400;19;153451;-57
2022/05/01 04:05:45;;;;;;;;;;;;;;;21.17;41.80;102136.81;7285669;19;154070;-57
2022/05/01 04:08:11;;;;;;;;;;;;;;;21.13;42.09;102142.16;7279704;19;153964;-56
2022/05/01 04:10:40;;;;;;;;;;;;;;;21.14;42.18;102141.03;7279421;19;151781;-57
2022/05/01 04:13:07;;;;;;;;;;;;;;;21.13;42.17;102142.16;7283248;19;152985;-56
2022/05/01 04:15:34;;;;;;;;;;;;;;;21.11;41.96;102137.94;7278963;19;153916;-57
2022/05/01 04:18:03;;;;;;;;;;;;;;;21.11;41.91;102135.97;7280837;19;151914;-57
2022/05/01 04:20:30;;;;;;;;;;;;;;;21.09;42.13;102137.34;7278696;19;153375;-56
2022/05/01 04:22:57;;;;;;;;;;;;;;;21.08;41.75;102130.88;7280198;19;154297;-58
2022/05/01 04:25:24;;;;;;;;;;;;;;;21.09;42.14;102134.53;7290225;19;151709;-57
2022/05/01 04:27:56;;;;;;;;;;;;;;;21.08;42.00;102136.50;7281493;19;153932;-57
2022/05/01 04:30:26;;;;;;;;;;;;;;;21.06;42.25;102132.31;7278564;19;151749;-57
2022/05/01 04:32:54;;;;;;;;;;;;;;;21.04;42.45;102132.59;7280632;19;152692;-58
2022/05/01 04:35:21;;;;;;;;;;;;;;;21.06;42.36;102135.97;7278507;19;155184;-58
2022/05/01 04:37:48;;;;;;;;;;;;;;;21.05;42.17;102128.66;7280752;19;151917;-57
2022/05/01 04:40:17;;;;;;;;;;;;;;;21.09;42.21;102128.91;7281329;19;152682;-57
2022/05/01 04:42:44;;;;;;;;;;;;;;;21.06;41.92;102135.13;7278969;19;154137;-57
2022/05/01 04:45:11;;;;;;;;;;;;;;;21.02;42.40;102131.19;7280693;19;151782;-58
2022/05/01 04:47:38;;;;;;;;;;;;;;;21.02;42.31;102128.38;7286606;19;153198;-58
2022/05/01 04:50:05;;;;;;;;;;;;;;;20.99;42.05;102128.94;7279475;19;152089;-57
2022/05/01 04:52:35;;;;;;;;;;;;;;;20.97;41.88;102134.00;7279329;19;152546;-57
2022/05/01 04:55:05;;;;;;;;;;;;;;;20.95;42.15;102131.47;7279279;19;153552;-57
2022/05/01 04:57:31;;;;;;;;;;;;;;;20.93;41.94;102130.94;7281652;19;151621;-57
2022/05/01 05:00:00;;;;;;;;;;;;;;;20.93;42.13;102130.94;7279454;19;153715;-57
2022/05/01 05:02:34;;;;;;;;;;;;;;;20.91;42.27;102130.34;7279184;19;154533;-58
2022/05/01 05:05:01;;;;;;;;;;;;;;;20.91;42.41;102135.13;7281510;19;151556;-57
2022/05/01 05:07:29;;;;;;;;;;;;;;;20.91;42.13;102135.13;7281842;19;153894;-57
2022/05/01 05:09:55;;;;;;;;;;;;;;;20.89;41.97;102138.25;7286851;19;153289;-57
2022/05/01 05:12:23;;;;;;;;;;;;;;;20.88;42.14;102132.88;7280404;19;153399;-57
2022/05/01 05:14:52;;;;;;;;;;;;;;;20.88;42.35;102136.53;7275049;19;154148;-57
2022/05/01 05:17:19;;;;;;;;;;;;;;;20.86;41.96;102133.16;7281955;19;151544;-57
2022/05/01 05:19:49;;;;;;;;;;;;;;;20.85;42.34;102139.91;7275725;19;153251;-57
2022/05/01 05:22:15;;;;;;;;;;;;;;;20.87;42.27;102134.84;7277487;19;153082;-58
2022/05/01 05:24:42;;;;;;;;;;;;;;;20.84;42.22;102133.47;7280106;19;151914;-57
2022/05/01 05:27:09;;;;;;;;;;;;;;;20.83;42.33;102131.78;7279412;19;152795;-57
2022/05/01 05:29:36;;;;;;;;;;;;;;;20.82;42.38;102137.66;7284180;19;153408;-58
2022/05/01 05:32:03;;;;;;;;;;;;;;;20.81;42.09;102142.44;7281048;19;152759;-58
2022/05/01 05:34:32;;;;;;;;;;;;;;;20.81;42.20;102138.78;7279126;19;154628;-57
2022/05/01 05:36:59;;;;;;;;;;;;;;;20.79;42.09;102139.09;7278592;19;152182;-56
2022/05/01 05:39:25;;;;;;;;;;;;;;;20.80;42.38;102137.94;7281392;19;153566;-57
2022/05/01 05:41:52;;;;;;;;;;;;;;;20.78;42.74;102140.19;7277476;19;155966;-57
2022/05/01 05:44:19;;;;;;;;;;;;;;;20.78;42.41;102139.34;7281881;19;151919;-57
2022/05/01 05:46:45;;;;;;;;;;;;;;;20.78;42.47;102131.78;7279134;19;152242;-57
2022/05/01 05:49:12;;;;;;;;;;;;;;;20.77;42.60;102138.50;7279694;19;153285;-57
2022/05/01 05:51:39;;;;;;;;;;;;;;;20.77;42.54;102134.84;7283315;19;151656;-57
2022/05/01 05:54:06;;;;;;;;;;;;;;;20.76;42.90;102135.97;7276850;19;153188;-58
2022/05/01 05:56:33;;;;;;;;;;;;;;;20.75;42.84;102142.72;7278958;19;151914;-56
2022/05/01 05:59:00;;;;;;;;;;;;;;;20.73;42.95;102145.81;7280687;19;152687;-58
2022/05/01 06:01:27;;;;;;;;;;;;;;;20.75;42.80;102156.78;7276264;19;153203;-57
2022/05/01 06:03:53;;;;;;;;;;;;;;;20.75;42.78;102146.38;7279829;19;152298;-57
2022/05/01 06:06:20;;;;;;;;;;;;;;;20.74;42.48;102149.47;7278779;19;153670;-58
2022/05/01 06:08:47;;;;;;;;;;;;;;;20.74;42.92;102147.50;7277083;19;153367;-57
2022/05/01 06:11:14;;;;;;;;;;;;;;;20.73;42.56;102144.97;7279115;19;152150;-57
2022/05/01 06:13:41;;;;;;;;;;;;;;;20.73;42.71;102148.63;7283466;19;154207;-57
2022/05/01 06:16:07;;;;;;;;;;;;;;;20.72;42.51;102146.94;7274169;19;152074;-57
2022/05/01 06:18:34;;;;;;;;;;;;;;;20.72;42.71;102146.09;7276587;19;152628;-57
2022/05/01 06:21:01;;;;;;;;;;;;;;;20.72;42.46;102144.13;7276353;19;155407;-56
2022/05/01 06:23:28;;;;;;;;;;;;;;;20.74;42.46;102141.03;7276276;19;151962;-57
2022/05/01 06:25:55;;;;;;;;;;;;;;;20.72;42.78;102140.47;7277111;19;152039;-56
2022/05/01 06:28:21;;;;;;;;;;;;;;;20.71;42.76;102142.47;7277723;19;154064;-57
2022/05/01 06:30:49;;;;;;;;;;;;;;;20.72;42.79;102140.47;7278967;19;151697;-56
2022/05/01 06:33:17;;;;;;;;;;;;;;;20.70;42.91;102143.56;7276629;19;152841;-56
2022/05/01 06:35:44;;;;;;;;;;;;;;;20.70;42.87;102145.53;7285915;19;153235;-56
2022/05/01 06:38:10;;;;;;;;;;;;;;;20.69;42.85;102139.06;7279996;19;152763;-58
2022/05/01 06:40:38;;;;;;;;;;;;;;;20.70;42.98;102143.56;7274822;19;153712;-56
2022/05/01 06:43:06;;;;;;;;;;;;;;;20.70;42.76;102145.53;7282350;19;151994;-56
2022/05/01 06:45:34;;;;;;;;;;;;;;;20.68;42.70;102145.81;7283622;19;153283;-56
2022/05/01 06:48:01;;;;;;;;;;;;;;;20.67;42.67;102144.13;7284201;19;153952;-56
2022/05/01 06:50:28;;;;;;;;;;;;;;;20.68;42.74;102145.81;7282089;19;151729;-56
2022/05/01 06:52:55;;;;;;;;;;;;;;;20.66;42.69;102145.25;7283036;19;154345;-56
2022/05/01 06:55:25;;;;;;;;;;;;;;;20.66;42.72;102136.84;7284183;19;153345;-56
2022/05/01 06:57:52;;;;;;;;;;;;;;;20.66;43.23;102142.44;7290310;19;152436;-56
2022/05/01 07:00:20;;;;;;;;;;;;;;;20.65;43.28;102140.75;7283045;19;153167;-56
2022/05/01 07:02:47;;;;;;;;;;;;;;;20.65;43.08;102140.75;7282855;19;151820;-56
2022/05/01 07:05:14;;;;;;;;;;;;;;;20.65;43.07;102137.94;7282858;19;152886;-56
2022/05/01 07:07:41;;;;;;;;;;;;;;;20.64;43.29;102136.25;7284651;19;153366;-57
2022/05/01 07:10:10;;;;;;;;;;;;;;;20.63;43.10;102134.56;7284935;19;152185;-57
2022/05/01 07:12:38;;;;;;;;;;;;;;;20.63;43.08;102136.53;7281608;19;152747;-56
2022/05/01 07:15:06;;;;;;;;;;;;;;;20.63;42.96;102142.16;7282230;19;153242;-57
2022/05/01 07:17:33;;;;;;;;;;;;;;;20.61;43.22;102139.63;7281262;19;151700;-57
2022/05/01 07:20:00;;;;;;;;;;;;;;;20.59;43.18;102135.41;7289184;19;152645;-56
2022/05/01 07:22:26;;;;;;;;;;;;;;;20.63;43.63;102136.53;7283738;19;151820;-57
2022/05/01 07:24:53;;;;;;;;;;;;;;;20.64;43.36;102139.06;7282165;19;152699;-56
2022/05/01 07:27:22;;;;;;;;;;;;;;;20.62;42.99;102138.53;7280039;19;156236;-56
2022/05/01 07:29:49;;;;;;;;;;;;;;;20.60;43.30;102135.13;7283888;19;151771;-56
2022/05/01 07:32:19;;;;;;;;;;;;;;;20.60;43.44;102137.09;7282043;19;152684;-56
2022/05/01 07:34:46;;;;;;;;;;;;;;;20.60;42.91;102137.09;7282731;19;153431;-56
2022/05/01 07:37:14;;;;;;;;;;;;;;;20.58;43.15;102139.38;7283243;19;151806;-56
2022/05/01 07:39:41;;;;;;;;;;;;;;;20.57;43.37;102135.72;7288962;19;153244;-56
2022/05/01 07:42:10;;;;;;;;;;;;;;;20.58;43.32;102137.38;7282644;19;151819;-56
2022/05/01 07:44:37;;;;;;;;;;;;;;;20.57;42.96;102138.53;7281716;19;153989;-56
2022/05/01 07:47:03;;;;;;;;;;;;;;;20.59;43.04;102136.25;7282835;19;153906;-56
2022/05/01 07:49:30;;;;;;;;;;;;;;;20.64;43.23;102141.88;7283158;19;151569;-56
2022/05/01 07:51:57;;;;;;;;;;;;;;;20.63;43.16;102140.19;7282664;19;153659;-56
2022/05/01 07:54:23;;;;;;;;;;;;;;;20.64;43.38;102138.22;7276830;19;153850;-57
2022/05/01 07:56:50;;;;;;;;;;;;;;;20.64;42.93;102139.06;7284415;19;151977;-57
2022/05/01 07:59:17;;;;;;;;;;;;;;;20.64;43.36;102138.22;7283198;19;152586;-57
2022/05/01 08:01:44;;;;;;;;;;;;;;;20.65;43.63;102142.72;7290186;19;153929;-56
2022/05/01 08:06:48;;;;;;;;;;;;;;;20.66;43.22;102139.66;7279770;19;153416;-56
2022/05/01 08:09:15;;;;;;;;;;;;;;;20.72;43.48;102132.88;7283631;19;151629;-57
2022/05/01 08:11:44;;;;;;;;;;;;;;;20.70;43.55;102137.13;7279612;19;151989;-58
2022/05/01 08:14:12;;;;;;;;;;;;;;;20.66;42.67;102139.66;7280032;19;153245;-58
2022/05/01 08:16:39;;;;;;;;;;;;;;;20.62;42.50;102146.94;7280756;19;151813;-56
2022/05/01 08:21:43;;;;;;;;;;;;;;;20.74;42.67;102152.28;7280982;19;153281;-58
2022/05/01 08:24:09;;;;;;;;;;;;;;;20.64;38.91;102136.25;7288836;19;151769;-56
2022/05/01 08:26:37;;;;;;;;;;;;;;;20.52;38.27;102138.50;7280987;19;153154;-59
2022/05/01 08:29:04;;;;;;;;;;;;;;;20.61;39.61;102142.44;7281562;19;152047;-57
2022/05/01 08:31:30;;;;;;;;;;;;;;;20.68;39.41;102139.34;7280803;19;154130;-59
2022/05/01 08:33:57;;;;;;;;;;;;;;;20.78;42.03;102137.38;7279990;19;154893;-60
2022/05/01 08:36:25;;;;;;;;;;;;;;;20.86;40.05;102128.38;7282992;19;151907;-58
2022/05/01 08:38:52;;;;;;;;;;;;;;;20.84;39.43;102132.63;7276780;19;153375;-58
2022/05/01 08:41:19;;;;;;;;;;;;;;;20.89;39.48;102131.78;7277868;19;154311;-58
2022/05/01 08:43:46;;;;;;;;;;;;;;;20.92;39.12;102117.16;7279769;19;152134;-59
2022/05/01 08:46:13;;;;;;;;;;;;;;;20.99;39.45;102137.34;7287810;19;152544;-59
2022/05/01 08:48:44;;;;;;;;;;;;;;;21.01;39.38;102130.34;7280797;19;151763;-58
2022/05/01 08:51:13;;;;;;;;;;;;;;;21.09;39.29;102120.50;7279719;19;153185;-59
2022/05/01 08:53:41;;;;;;;;;;;;;;;21.13;39.36;102122.47;7277704;19;154296;-58
2022/05/01 08:56:07;;;;;;;;;;;;;;;21.20;39.16;102130.63;7279079;19;151812;-58
2022/05/01 08:58:35;;;;;;;;;;;;;;;21.24;38.91;102134.56;7278206;19;155201;-58
2022/05/01 09:01:02;;;;;;;;;;;;;;;21.32;38.68;102130.31;7280461;19;154029;-59
2022/05/01 09:03:29;;;;;;;;;;;;;;;21.37;38.26;102136.78;7281328;19;151666;-59
2022/05/01 09:05:56;;;;;;;;;;;;;;;21.46;38.21;102131.41;7278625;19;153357;-57
2022/05/01 09:08:24;;;;;;;;;;;;;;;21.53;38.55;102126.34;7287608;19;153989;-57
2022/05/01 09:10:51;;;;;;;;;;;;;;;21.63;38.04;102140.34;7276794;19;154089;-55
2022/05/01 09:13:23;;;;;;;;;;;;;;;21.71;38.07;102134.13;7277205;19;152918;-55
2022/05/01 09:15:50;;;;;;;;;;;;;;;21.74;38.21;102130.75;7275918;19;151996;-57
2022/05/01 09:18:18;;;;;;;;;;;;;;;21.86;37.65;102127.56;7280034;19;153541;-56
2022/05/01 09:20:59;;;;;;;;;;;;;;;21.92;37.97;102126.44;7275329;19;153257;-56
2022/05/01 09:23:35;;;;;;;;;;;;;;;21.92;37.90;102129.25;7279773;19;151775;-56
2022/05/01 09:26:02;;;;;;;;;;;;;;;21.96;37.55;102133.19;7279113;19;153087;-56
2022/05/01 09:28:35;;;;;;;;;;;;;;;22.01;37.59;102124.72;7276981;19;153372;-55
2022/05/01 09:31:02;;;;;;;;;;;;;;;22.03;37.24;102128.91;7283469;19;152062;-57
2022/05/01 09:33:29;;;;;;;;;;;;;;;22.05;37.47;102132.28;7276128;19;153422;-56
2022/05/01 09:35:56;;;;;;;;;;;;;;;22.10;37.25;102122.97;7278158;19;151623;-57
2022/05/01 09:38:25;;;;;;;;;;;;;;;22.11;37.00;102124.69;7276771;19;153548;-57
2022/05/01 09:40:55;;;;;;;;;;;;;;;22.14;36.86;102127.75;7277235;19;153885;-56
2022/05/01 09:43:34;;;;;;;;;;;;;;;22.15;36.88;102121.00;7276738;19;152166;-57
2022/05/01 09:46:11;;;;;;;;;;;;;;;22.16;36.56;102119.03;7275908;19;152996;-56
2022/05/01 09:48:38;;;;;;;;;;;;;;;22.17;36.92;102118.69;7278056;19;154553;-57
2022/05/01 09:51:16;;;;;;;;;;;;;;;22.18;36.74;102119.56;7286579;19;152488;-56
2022/05/01 09:53:43;;;;;;;;;;;;;;;22.18;36.56;102128.00;7277515;19;153438;-57
2022/05/01 09:56:10;;;;;;;;;;;;;;;22.18;36.24;102113.91;7273353;19;152030;-56
2022/05/01 09:58:40;;;;;;;;;;;;;;;22.18;35.96;102122.38;7279503;19;153329;-57
2022/05/01 10:01:09;;;;;;;;;;;;;;;22.18;36.45;102126.03;7274875;19;154325;-57
2022/05/01 10:03:39;;;;;;;;;;;;;;;22.19;36.45;102121.25;7276459;19;152328;-56
2022/05/01 10:06:09;;;;;;;;;;;;;;;22.22;36.36;102125.44;7276024;19;152979;-56
2022/05/01 10:08:37;;;;;;;;;;;;;;;22.21;36.37;102119.00;7280221;19;153264;-56
2022/05/01 10:11:05;;;;;;;;;;;;;;;22.21;37.02;102116.16;7276530;19;151647;-56
2022/05/01 10:13:33;;;;;;;;;;;;;;;22.21;36.66;102120.97;7281342;19;153599;-56
2022/05/01 10:16:06;;;;;;;;;;;;;;;22.18;36.58;102113.91;7270297;19;151925;-57
2022/05/01 10:18:34;;;;;;;;;;;;;;;22.17;36.77;102112.22;7278607;19;153540;-56
2022/05/01 10:21:02;;;;;;;;;;;;;;;22.18;36.53;102109.13;7283877;19;153507;-56
2022/05/01 10:23:29;;;;;;;;;;;;;;;22.18;36.60;102111.09;7283733;19;151710;-56
2022/05/01 10:25:59;;;;;;;;;;;;;;;22.16;36.30;102104.94;7286018;19;152744;-56
2022/05/01 10:28:47;;;;;;;;;;;;;;;22.15;36.36;102103.25;7283959;19;155033;-56
2022/05/01 10:34:12;;;;;;;;;;;;;;;22.09;36.00;102098.78;7285139;19;153256;-56
2022/05/01 10:36:51;;;;;;;;;;;;;;;22.04;36.36;102096.84;7291713;19;153355;-56
2022/05/01 10:39:20;;;;;;;;;;;;;;;22.09;35.78;102107.22;7285080;19;153928;-56
2022/05/01 10:41:47;;;;;;;;;;;;;;;22.10;36.42;102104.13;7279860;19;152955;-55
2022/05/01 10:44:30;;;;;;;;;;;;;;;22.11;36.42;102099.34;7283531;19;152664;-57
2022/05/01 10:47:05;;;;;;;;;;;;;;;22.12;35.94;102106.66;7283609;19;152750;-55
2022/05/01 10:49:33;;;;;;;;;;;;;;;22.09;36.33;102095.97;7281507;19;153218;-55
2022/05/01 10:52:09;;;;;;;;;;;;;;;22.09;36.20;102095.97;7282858;19;151702;-56
2022/05/01 10:54:37;;;;;;;;;;;;;;;22.08;36.39;102094.28;7282863;19;153569;-55
2022/05/01 10:57:06;;;;;;;;;;;;;;;22.06;36.08;102086.13;7281218;19;153340;-55
2022/05/01 10:59:38;;;;;;;;;;;;;;;22.05;36.46;102087.25;7293000;19;151700;-56
2022/05/01 11:02:18;;;;;;;;;;;;;;;22.05;36.17;102094.88;7282008;19;154021;-56
2022/05/01 11:04:45;;;;;;;;;;;;;;;22.05;36.28;102086.41;7283235;19;151996;-56
2022/05/01 11:07:13;;;;;;;;;;;;;;;22.04;36.16;102088.38;7286621;19;153394;-56
2022/05/01 11:09:41;;;;;;;;;;;;;;;22.01;36.38;102085.31;7284177;19;153432;-55
2022/05/01 11:12:09;;;;;;;;;;;;;;;22.01;36.61;102091.78;7284133;19;151589;-56
2022/05/01 11:14:50;;;;;;;;;;;;;;;21.99;36.32;102088.41;7281267;19;153414;-55
2022/05/01 11:17:26;;;;;;;;;;;;;;;22.00;36.79;102080.81;7282306;19;153352;-55
2022/05/01 11:19:53;;;;;;;;;;;;;;;21.97;36.55;102087.03;7284705;19;151776;-55
2022/05/01 11:22:24;;;;;;;;;;;;;;;21.95;36.39;102078.88;7290056;19;152719;-55
2022/05/01 11:24:51;;;;;;;;;;;;;;;21.95;36.34;102080.84;7282542;19;151995;-55
2022/05/01 11:27:18;;;;;;;;;;;;;;;21.93;36.83;102081.16;7283777;19;153606;-56
2022/05/01 11:29:55;;;;;;;;;;;;;;;21.89;37.03;102073.56;7279620;19;153348;-55
2022/05/01 11:32:22;;;;;;;;;;;;;;;21.88;37.12;102075.53;7280400;19;152121;-55
2022/05/01 11:34:50;;;;;;;;;;;;;;;21.85;36.72;102076.09;7282301;19;153602;-56
2022/05/01 11:37:18;;;;;;;;;;;;;;;21.85;36.92;102075.28;7281437;19;153960;-56
2022/05/01 11:39:46;;;;;;;;;;;;;;;21.83;36.98;102069.91;7285506;19;151771;-55
2022/05/01 11:42:21;;;;;;;;;;;;;;;21.83;36.91;102069.09;7280971;19;153634;-55
2022/05/01 11:44:49;;;;;;;;;;;;;;;21.84;37.01;102079.22;7287449;19;151805;-55
2022/05/01 11:47:18;;;;;;;;;;;;;;;21.86;37.04;102068.50;7280658;19;153486;-56
2022/05/01 11:49:45;;;;;;;;;;;;;;;21.84;37.06;102070.78;7281462;19;154157;-56
2022/05/01 11:52:14;;;;;;;;;;;;;;;21.83;36.65;102072.75;7283117;19;152395;-55
2022/05/01 11:54:51;;;;;;;;;;;;;;;21.81;36.89;102060.06;7284072;19;153992;-55
2022/05/01 12:02:32;;;;;;;;;;;;;;;21.81;37.11;102068.50;7281332;19;152925;-55
2022/05/01 12:04:59;;;;;;;;;;;;;;;21.78;37.23;102081.19;7290623;19;154024;-55
2022/05/01 12:07:26;;;;;;;;;;;;;;;21.76;37.39;102069.38;7283176;19;153628;-56
2022/05/01 12:09:53;;;;;;;;;;;;;;;21.74;37.58;102074.47;7280106;19;153266;-56
2022/05/01 12:12:20;;;;;;;;;;;;;;;21.74;37.50;102069.69;7281315;19;151551;-56
2022/05/01 12:14:48;;;;;;;;;;;;;;;21.74;37.35;102068.84;7279349;19;153221;-55
2022/05/01 12:17:16;;;;;;;;;;;;;;;21.69;37.35;102072.53;7280715;19;154410;-56
2022/05/01 12:19:51;;;;;;;;;;;;;;;21.70;37.46;102073.38;7282157;19;151760;-55
2022/05/01 12:22:19;;;;;;;;;;;;;;;21.71;37.48;102075.88;7280799;19;153310;-55
2022/05/01 12:24:47;;;;;;;;;;;;;;;21.62;37.47;102080.41;7280356;19;153397;-56
2022/05/01 12:27:15;;;;;;;;;;;;;;;21.62;37.47;102069.16;7290773;19;151858;-56
2022/05/01 12:29:51;;;;;;;;;;;;;;;21.62;37.82;102071.97;7280110;19;154064;-56
2022/05/01 12:32:17;;;;;;;;;;;;;;;21.63;37.85;102075.66;7280275;19;152350;-56
2022/05/01 12:34:45;;;;;;;;;;;;;;;21.60;37.93;102070.59;7282646;19;151783;-56
2022/05/01 12:37:19;;;;;;;;;;;;;;;21.54;38.06;102071.75;7280737;19;153468;-56
2022/05/01 12:39:56;;;;;;;;;;;;;;;21.49;38.13;102071.75;7279136;19;151687;-55
2022/05/01 12:45:09;;;;;;;;;;;;;;;21.43;38.14;102068.16;7279621;19;153979;-56
2022/05/01 12:47:38;;;;;;;;;;;;;;;21.41;38.27;102064.78;7280699;19;151869;-56
2022/05/01 12:50:07;;;;;;;;;;;;;;;21.40;37.96;102068.72;7287057;19;152837;-55
2022/05/01 12:52:35;;;;;;;;;;;;;;;21.37;38.01;102063.66;7278740;19;151966;-55
2022/05/01 12:55:06;;;;;;;;;;;;;;;21.37;38.09;102065.63;7280856;19;154710;-55
2022/05/01 12:57:35;;;;;;;;;;;;;;;21.35;38.59;102059.47;7278547;19;153984;-56
2022/05/01 13:00:05;;;;;;;;;;;;;;;21.33;38.40;102064.53;7279967;19;151865;-56
2022/05/01 13:02:32;;;;;;;;;;;;;;;21.36;38.45;102067.59;7278982;19;153636;-56